sensor_id;sensor_type;location;lat;lon;timestamp;temperature;humidity
3794;DHT22;1912;51.358;12.282;2023-08-01T03:47:42;16.80;1.00
3794;DHT22;1912;51.358;12.282;2023-08-01T03:50:08;16.80;1.00
3794;DHT22;1912;51.358;12.282;2023-08-01T03:52:34;16.80;1.00
3794;DHT22;1912;51.358;12.282;2023-08-01T03:55:00;16.80;1.00
3794;DHT22;1912;51.358;12.282;2023-08-01T03:57:25;16.80;1.00
3794;DHT22;1912;51.358;12.282;2023-08-01T03:59:51;16.80;1.00
3794;DHT22;1912;51.358;12.282;2023-08-01T04:02:17;16.80;1.00
3794;DHT22;1912;51.358;12.282;2023-08-01T04:04:44;16.80;1.00
3794;DHT22;1912;51.358;12.282;2023-08-01T04:07:09;16.80;1.00
3794;DHT22;1912;51.358;12.282;2023-08-01T04:09:35;16.80;1.00
3794;DHT22;1912;51.358;12.282;2023-08-01T04:12:04;16.80;1.00
3794;DHT22;1912;51.358;12.282;2023-08-01T04:14:32;16.80;1.00
3794;DHT22;1912;51.358;12.282;2023-08-01T04:16:58;16.90;1.00
3794;DHT22;1912;51.358;12.282;2023-08-01T04:19:24;16.90;1.00
3794;DHT22;1912;51.358;12.282;2023-08-01T04:21:50;16.90;1.00
3794;DHT22;1912;51.358;12.282;2023-08-01T04:24:16;16.90;1.00
3794;DHT22;1912;51.358;12.282;2023-08-01T04:26:42;16.90;1.00
3794;DHT22;1912;51.358;12.282;2023-08-01T04:29:07;16.90;1.00
3794;DHT22;1912;51.358;12.282;2023-08-01T04:31:33;16.90;1.00
3794;DHT22;1912;51.358;12.282;2023-08-01T04:33:59;16.90;1.00
3794;DHT22;1912;51.358;12.282;2023-08-01T04:36:25;16.90;1.00
3794;DHT22;1912;51.358;12.282;2023-08-01T04:38:50;16.90;1.00
3794;DHT22;1912;51.358;12.282;2023-08-01T04:41:16;16.90;1.00
3794;DHT22;1912;51.358;12.282;2023-08-01T04:43:42;16.90;1.00
3794;DHT22;1912;51.358;12.282;2023-08-01T04:46:07;16.90;1.00
3794;DHT22;1912;51.358;12.282;2023-08-01T04:48:33;16.90;1.00
3794;DHT22;1912;51.358;12.282;2023-08-01T04:50:58;16.90;1.00
3794;DHT22;1912;51.358;12.282;2023-08-01T04:53:24;17.00;1.00
3794;DHT22;1912;51.358;12.282;2023-08-01T04:55:50;16.90;1.00
3794;DHT22;1912;51.358;12.282;2023-08-01T04:58:16;16.90;1.00
3794;DHT22;1912;51.358;12.282;2023-08-01T05:00:42;16.90;1.00
3794;DHT22;1912;51.358;12.282;2023-08-01T05:03:08;17.00;1.00
3794;DHT22;1912;51.358;12.282;2023-08-01T05:05:33;16.90;1.00
3794;DHT22;1912;51.358;12.282;2023-08-01T05:07:59;16.90;1.00
3794;DHT22;1912;51.358;12.282;2023-08-01T05:10:25;16.90;1.00
3794;DHT22;1912;51.358;12.282;2023-08-01T05:12:50;16.90;1.00
3794;DHT22;1912;51.358;12.282;2023-08-01T05:15:16;16.90;1.00
3794;DHT22;1912;51.358;12.282;2023-08-01T05:17:42;16.90;1.00
3794;DHT22;1912;51.358;12.282;2023-08-01T05:20:08;16.90;1.00
3794;DHT22;1912;51.358;12.282;2023-08-01T05:22:33;16.90;1.00
3794;DHT22;1912;51.358;12.282;2023-08-01T05:25:00;16.90;1.00
3794;DHT22;1912;51.358;12.282;2023-08-01T05:27:27;16.90;1.00
3794;DHT22;1912;51.358;12.282;2023-08-01T05:29:52;16.90;1.00
3794;DHT22;1912;51.358;12.282;2023-08-01T05:32:20;16.90;1.00
3794;DHT22;1912;51.358;12.282;2023-08-01T05:34:46;16.90;1.00
3794;DHT22;1912;51.358;12.282;2023-08-01T05:37:12;16.80;1.00
3794;DHT22;1912;51.358;12.282;2023-08-01T05:39:37;16.80;1.00
3794;DHT22;1912;51.358;12.282;2023-08-01T05:42:04;16.80;1.00
3794;DHT22;1912;51.358;12.282;2023-08-01T05:44:33;16.80;1.00
3794;DHT22;1912;51.358;12.282;2023-08-01T05:46:59;16.80;1.00
3794;DHT22;1912;51.358;12.282;2023-08-01T05:49:25;16.80;1.00
3794;DHT22;1912;51.358;12.282;2023-08-01T05:51:51;16.70;1.00
3794;DHT22;1912;51.358;12.282;2023-08-01T05:54:16;16.80;1.00
3794;DHT22;1912;51.358;12.282;2023-08-01T05:56:42;16.70;1.00
3794;DHT22;1912;51.358;12.282;2023-08-01T05:59:08;16.70;1.00
3794;DHT22;1912;51.358;12.282;2023-08-01T06:01:34;16.70;1.00
3794;DHT22;1912;51.358;12.282;2023-08-01T06:03:59;16.80;1.00
3794;DHT22;1912;51.358;12.282;2023-08-01T06:06:25;16.80;1.00
3794;DHT22;1912;51.358;12.282;2023-08-01T06:08:51;16.70;1.90
3794;DHT22;1912;51.358;12.282;2023-08-01T06:11:17;16.80;3.10
3794;DHT22;1912;51.358;12.282;2023-08-01T06:13:42;16.80;3.60
3794;DHT22;1912;51.358;12.282;2023-08-01T06:16:08;16.70;4.20
3794;DHT22;1912;51.358;12.282;2023-08-01T06:18:34;16.80;4.80
3794;DHT22;1912;51.358;12.282;2023-08-01T06:20:59;16.80;5.20
3794;DHT22;1912;51.358;12.282;2023-08-01T06:23:25;16.80;4.60
3794;DHT22;1912;51.358;12.282;2023-08-01T06:25:51;16.80;4.90
3794;DHT22;1912;51.358;12.282;2023-08-01T06:28:16;16.80;5.00
3794;DHT22;1912;51.358;12.282;2023-08-01T06:30:42;16.80;5.10
3794;DHT22;1912;51.358;12.282;2023-08-01T06:33:08;16.90;4.90
3794;DHT22;1912;51.358;12.282;2023-08-01T06:35:34;16.90;5.10
3794;DHT22;1912;51.358;12.282;2023-08-01T06:37:59;16.90;4.30
3794;DHT22;1912;51.358;12.282;2023-08-01T06:40:25;16.90;4.00
3794;DHT22;1912;51.358;12.282;2023-08-01T06:42:50;16.90;3.40
3794;DHT22;1912;51.358;12.282;2023-08-01T06:45:16;16.90;1.00
3794;DHT22;1912;51.358;12.282;2023-08-01T06:47:42;17.00;1.00
3794;DHT22;1912;51.358;12.282;2023-08-01T06:50:08;17.00;1.00
3794;DHT22;1912;51.358;12.282;2023-08-01T06:52:35;17.00;1.00
3794;DHT22;1912;51.358;12.282;2023-08-01T06:55:00;17.00;1.00
3794;DHT22;1912;51.358;12.282;2023-08-01T06:57:27;17.00;1.00
3794;DHT22;1912;51.358;12.282;2023-08-01T06:59:52;17.00;1.00
3794;DHT22;1912;51.358;12.282;2023-08-01T07:02:18;17.00;1.00
3794;DHT22;1912;51.358;12.282;2023-08-01T07:04:44;17.00;1.00
3794;DHT22;1912;51.358;12.282;2023-08-01T07:07:10;17.10;1.00
3794;DHT22;1912;51.358;12.282;2023-08-01T07:09:35;17.10;1.00
3794;DHT22;1912;51.358;12.282;2023-08-01T07:12:02;17.20;1.00
3794;DHT22;1912;51.358;12.282;2023-08-01T07:14:28;17.20;1.00
3794;DHT22;1912;51.358;12.282;2023-08-01T07:16:54;17.20;1.00
3794;DHT22;1912;51.358;12.282;2023-08-01T07:19:19;17.20;1.00
3794;DHT22;1912;51.358;12.282;2023-08-01T07:21:45;17.20;1.00
3794;DHT22;1912;51.358;12.282;2023-08-01T07:24:13;17.20;1.00
3794;DHT22;1912;51.358;12.282;2023-08-01T07:26:39;17.20;1.00
3794;DHT22;1912;51.358;12.282;2023-08-01T07:29:05;17.10;1.00
3794;DHT22;1912;51.358;12.282;2023-08-01T07:31:33;17.10;1.00
3794;DHT22;1912;51.358;12.282;2023-08-01T07:33:59;17.10;1.00
3794;DHT22;1912;51.358;12.282;2023-08-01T07:36:25;17.00;1.00
3794;DHT22;1912;51.358;12.282;2023-08-01T07:38:50;17.00;1.00
3794;DHT22;1912;51.358;12.282;2023-08-01T07:41:16;16.90;1.00
3794;DHT22;1912;51.358;12.282;2023-08-01T07:43:41;17.00;1.00
3794;DHT22;1912;51.358;12.282;2023-08-01T07:46:07;16.90;1.00
3794;DHT22;1912;51.358;12.282;2023-08-01T07:48:35;16.80;1.00
3794;DHT22;1912;51.358;12.282;2023-08-01T07:51:00;16.80;1.00
3794;DHT22;1912;51.358;12.282;2023-08-01T07:53:27;16.80;1.00
3794;DHT22;1912;51.358;12.282;2023-08-01T07:55:52;16.80;1.00
3794;DHT22;1912;51.358;12.282;2023-08-01T07:58:18;16.80;1.00
3794;DHT22;1912;51.358;12.282;2023-08-01T08:00:44;16.90;1.00
3794;DHT22;1912;51.358;12.282;2023-08-01T08:03:10;16.90;1.00
3794;DHT22;1912;51.358;12.282;2023-08-01T08:05:35;16.90;1.00
3794;DHT22;1912;51.358;12.282;2023-08-01T08:08:05;16.90;1.00
3794;DHT22;1912;51.358;12.282;2023-08-01T08:10:31;16.90;1.00
3794;DHT22;1912;51.358;12.282;2023-08-01T08:12:57;16.90;1.00
3794;DHT22;1912;51.358;12.282;2023-08-01T08:15:22;17.00;1.00
3794;DHT22;1912;51.358;12.282;2023-08-01T08:17:49;17.00;1.00
3794;DHT22;1912;51.358;12.282;2023-08-01T08:20:15;17.00;1.00
3794;DHT22;1912;51.358;12.282;2023-08-01T08:22:40;17.00;1.00
3794;DHT22;1912;51.358;12.282;2023-08-01T08:25:06;17.00;1.00
3794;DHT22;1912;51.358;12.282;2023-08-01T08:27:32;17.20;1.00
3794;DHT22;1912;51.358;12.282;2023-08-01T08:29:57;17.20;1.00
3794;DHT22;1912;51.358;12.282;2023-08-01T08:32:23;17.30;1.00
3794;DHT22;1912;51.358;12.282;2023-08-01T08:34:49;17.20;1.00
3794;DHT22;1912;51.358;12.282;2023-08-01T08:37:14;17.30;1.00
3794;DHT22;1912;51.358;12.282;2023-08-01T08:39:40;17.40;1.00
3794;DHT22;1912;51.358;12.282;2023-08-01T08:42:06;17.30;1.00
3794;DHT22;1912;51.358;12.282;2023-08-01T08:44:35;17.20;1.00
3794;DHT22;1912;51.358;12.282;2023-08-01T08:47:09;17.20;1.00
3794;DHT22;1912;51.358;12.282;2023-08-01T08:49:36;17.10;1.00
3794;DHT22;1912;51.358;12.282;2023-08-01T08:52:02;17.10;1.00
3794;DHT22;1912;51.358;12.282;2023-08-01T08:54:30;17.00;1.00
3794;DHT22;1912;51.358;12.282;2023-08-01T08:56:57;17.00;1.00
3794;DHT22;1912;51.358;12.282;2023-08-01T08:59:25;17.10;1.00
3794;DHT22;1912;51.358;12.282;2023-08-01T09:01:52;17.10;1.00
3794;DHT22;1912;51.358;12.282;2023-08-01T09:04:18;17.20;1.00
3794;DHT22;1912;51.358;12.282;2023-08-01T09:06:46;17.30;1.00
3794;DHT22;1912;51.358;12.282;2023-08-01T09:09:15;17.40;1.00
3794;DHT22;1912;51.358;12.282;2023-08-01T09:11:46;17.50;1.00
3794;DHT22;1912;51.358;12.282;2023-08-01T09:14:13;17.60;1.00
3794;DHT22;1912;51.358;12.282;2023-08-01T09:16:40;17.60;1.00
3794;DHT22;1912;51.358;12.282;2023-08-01T09:19:07;17.70;1.00
3794;DHT22;1912;51.358;12.282;2023-08-01T09:21:35;17.80;1.00
3794;DHT22;1912;51.358;12.282;2023-08-01T09:24:11;17.90;1.00
3794;DHT22;1912;51.358;12.282;2023-08-01T09:26:39;18.00;1.00
3794;DHT22;1912;51.358;12.282;2023-08-01T09:29:06;18.10;1.00
3794;DHT22;1912;51.358;12.282;2023-08-01T09:31:37;18.10;1.00
3794;DHT22;1912;51.358;12.282;2023-08-01T09:34:17;18.30;1.00
3794;DHT22;1912;51.358;12.282;2023-08-01T09:36:44;18.40;1.00
3794;DHT22;1912;51.358;12.282;2023-08-01T09:39:16;18.50;1.00
3794;DHT22;1912;51.358;12.282;2023-08-01T09:41:46;18.50;1.00
3794;DHT22;1912;51.358;12.282;2023-08-01T09:44:19;18.50;1.00
3794;DHT22;1912;51.358;12.282;2023-08-01T09:47:01;18.50;1.00
3794;DHT22;1912;51.358;12.282;2023-08-01T09:49:29;18.50;1.00
3794;DHT22;1912;51.358;12.282;2023-08-01T09:51:55;18.40;1.00
3794;DHT22;1912;51.358;12.282;2023-08-01T09:54:21;18.10;1.00
3794;DHT22;1912;51.358;12.282;2023-08-01T09:56:49;17.70;1.00
3794;DHT22;1912;51.358;12.282;2023-08-01T09:59:24;17.60;1.00
3794;DHT22;1912;51.358;12.282;2023-08-01T10:01:52;17.60;1.00
3794;DHT22;1912;51.358;12.282;2023-08-01T10:04:21;17.60;1.00
3794;DHT22;1912;51.358;12.282;2023-08-01T10:06:57;17.60;1.00
3794;DHT22;1912;51.358;12.282;2023-08-01T10:09:24;17.60;1.00
3794;DHT22;1912;51.358;12.282;2023-08-01T10:11:51;17.60;1.00
3794;DHT22;1912;51.358;12.282;2023-08-01T10:14:19;17.60;1.00
3794;DHT22;1912;51.358;12.282;2023-08-01T10:16:45;17.60;1.00
3794;DHT22;1912;51.358;12.282;2023-08-01T10:19:13;17.60;1.00
3794;DHT22;1912;51.358;12.282;2023-08-01T10:21:41;17.70;1.00
3794;DHT22;1912;51.358;12.282;2023-08-01T10:24:08;17.80;1.00
3794;DHT22;1912;51.358;12.282;2023-08-01T10:26:34;17.80;1.00
3794;DHT22;1912;51.358;12.282;2023-08-01T10:29:00;17.90;1.00
3794;DHT22;1912;51.358;12.282;2023-08-01T10:31:27;18.00;1.00
3794;DHT22;1912;51.358;12.282;2023-08-01T10:34:13;18.10;1.00
3794;DHT22;1912;51.358;12.282;2023-08-01T10:36:39;18.20;1.00
3794;DHT22;1912;51.358;12.282;2023-08-01T10:39:05;18.30;1.00
3794;DHT22;1912;51.358;12.282;2023-08-01T10:41:32;18.50;1.00
3794;DHT22;1912;51.358;12.282;2023-08-01T10:44:11;18.60;1.00
3794;DHT22;1912;51.358;12.282;2023-08-01T10:52:16;18.70;1.00
3794;DHT22;1912;51.358;12.282;2023-08-01T10:55:03;18.70;1.00
3794;DHT22;1912;51.358;12.282;2023-08-01T10:57:31;18.80;1.00
3794;DHT22;1912;51.358;12.282;2023-08-01T11:00:16;19.00;1.00
3794;DHT22;1912;51.358;12.282;2023-08-01T11:02:49;19.10;1.00
3794;DHT22;1912;51.358;12.282;2023-08-01T11:05:17;19.20;1.00
3794;DHT22;1912;51.358;12.282;2023-08-01T11:07:53;19.20;1.00
3794;DHT22;1912;51.358;12.282;2023-08-01T11:10:27;19.20;1.00
3794;DHT22;1912;51.358;12.282;2023-08-01T11:12:55;19.30;1.00
3794;DHT22;1912;51.358;12.282;2023-08-01T11:15:21;19.30;1.00
3794;DHT22;1912;51.358;12.282;2023-08-01T11:17:48;19.40;1.00
3794;DHT22;1912;51.358;12.282;2023-08-01T11:20:16;19.60;1.00
3794;DHT22;1912;51.358;12.282;2023-08-01T11:22:59;19.70;1.00
3794;DHT22;1912;51.358;12.282;2023-08-01T11:28:09;20.10;1.00
3794;DHT22;1912;51.358;12.282;2023-08-01T11:30:37;20.40;1.00
3794;DHT22;1912;51.358;12.282;2023-08-01T11:33:13;20.50;1.00
3794;DHT22;1912;51.358;12.282;2023-08-01T11:35:43;20.60;1.00
3794;DHT22;1912;51.358;12.282;2023-08-01T11:38:09;20.70;1.00
3794;DHT22;1912;51.358;12.282;2023-08-01T11:40:36;21.20;1.00
3794;DHT22;1912;51.358;12.282;2023-08-01T11:43:02;21.30;1.00
3794;DHT22;1912;51.358;12.282;2023-08-01T11:45:29;21.50;1.00
3794;DHT22;1912;51.358;12.282;2023-08-01T11:47:55;21.30;1.00
3794;DHT22;1912;51.358;12.282;2023-08-01T11:50:22;21.20;1.00
3794;DHT22;1912;51.358;12.282;2023-08-01T11:52:48;21.20;1.00
3794;DHT22;1912;51.358;12.282;2023-08-01T11:55:22;21.00;1.00
3794;DHT22;1912;51.358;12.282;2023-08-01T11:57:54;21.10;1.00
3794;DHT22;1912;51.358;12.282;2023-08-01T12:00:22;21.30;1.00
3794;DHT22;1912;51.358;12.282;2023-08-01T12:03:06;21.40;1.00
3794;DHT22;1912;51.358;12.282;2023-08-01T12:05:39;21.30;1.00
3794;DHT22;1912;51.358;12.282;2023-08-01T12:08:13;21.50;1.00
3794;DHT22;1912;51.358;12.282;2023-08-01T12:10:44;21.60;1.00
3794;DHT22;1912;51.358;12.282;2023-08-01T12:13:21;21.90;1.00
3794;DHT22;1912;51.358;12.282;2023-08-01T12:15:52;21.90;1.00
3794;DHT22;1912;51.358;12.282;2023-08-01T12:18:23;22.20;1.00
3794;DHT22;1912;51.358;12.282;2023-08-01T12:20:50;22.90;1.00
3794;DHT22;1912;51.358;12.282;2023-08-01T12:23:16;22.70;1.00
3794;DHT22;1912;51.358;12.282;2023-08-01T12:25:42;23.00;1.00
3794;DHT22;1912;51.358;12.282;2023-08-01T12:28:08;22.90;1.00
3794;DHT22;1912;51.358;12.282;2023-08-01T12:30:34;22.50;1.00
3794;DHT22;1912;51.358;12.282;2023-08-01T12:32:59;22.30;1.00
3794;DHT22;1912;51.358;12.282;2023-08-01T12:35:26;22.60;1.00
3794;DHT22;1912;51.358;12.282;2023-08-01T12:37:52;23.20;1.00
3794;DHT22;1912;51.358;12.282;2023-08-01T12:40:19;23.50;1.00
3794;DHT22;1912;51.358;12.282;2023-08-01T12:42:46;23.20;1.00
3794;DHT22;1912;51.358;12.282;2023-08-01T12:45:12;22.80;1.00
3794;DHT22;1912;51.358;12.282;2023-08-01T12:47:39;22.60;1.00
3794;DHT22;1912;51.358;12.282;2023-08-01T12:50:05;22.90;1.00
3794;DHT22;1912;51.358;12.282;2023-08-01T12:52:31;23.30;1.00
3794;DHT22;1912;51.358;12.282;2023-08-01T12:54:57;23.60;1.00
3794;DHT22;1912;51.358;12.282;2023-08-01T12:57:22;23.70;1.00
3794;DHT22;1912;51.358;12.282;2023-08-01T12:59:48;23.90;1.00
3794;DHT22;1912;51.358;12.282;2023-08-01T13:02:14;23.90;1.00
3794;DHT22;1912;51.358;12.282;2023-08-01T13:04:40;24.30;1.00
3794;DHT22;1912;51.358;12.282;2023-08-01T13:07:06;24.40;1.00
3794;DHT22;1912;51.358;12.282;2023-08-01T13:09:31;24.50;1.00
3794;DHT22;1912;51.358;12.282;2023-08-01T13:11:57;24.20;1.00
3794;DHT22;1912;51.358;12.282;2023-08-01T13:14:25;23.90;1.00
3794;DHT22;1912;51.358;12.282;2023-08-01T13:16:51;23.70;1.00
3794;DHT22;1912;51.358;12.282;2023-08-01T13:19:17;23.20;1.00
3794;DHT22;1912;51.358;12.282;2023-08-01T13:21:43;23.00;1.00
3794;DHT22;1912;51.358;12.282;2023-08-01T13:24:08;22.70;1.00
3794;DHT22;1912;51.358;12.282;2023-08-01T13:26:34;22.70;1.00
3794;DHT22;1912;51.358;12.282;2023-08-01T13:29:01;22.50;1.00
3794;DHT22;1912;51.358;12.282;2023-08-01T13:31:27;22.30;1.00
3794;DHT22;1912;51.358;12.282;2023-08-01T13:33:54;22.40;1.00
3794;DHT22;1912;51.358;12.282;2023-08-01T13:36:20;22.20;1.00
3794;DHT22;1912;51.358;12.282;2023-08-01T13:38:46;22.00;1.00
3794;DHT22;1912;51.358;12.282;2023-08-01T13:41:13;21.90;1.00
3794;DHT22;1912;51.358;12.282;2023-08-01T13:43:39;22.00;1.00
3794;DHT22;1912;51.358;12.282;2023-08-01T13:46:23;22.60;1.00
3794;DHT22;1912;51.358;12.282;2023-08-01T13:48:49;22.60;1.00
3794;DHT22;1912;51.358;12.282;2023-08-01T13:51:14;22.40;1.00
3794;DHT22;1912;51.358;12.282;2023-08-01T13:53:40;22.00;1.00
3794;DHT22;1912;51.358;12.282;2023-08-01T13:56:09;21.80;1.00
3794;DHT22;1912;51.358;12.282;2023-08-01T13:58:37;21.70;1.00
3794;DHT22;1912;51.358;12.282;2023-08-01T14:01:07;21.40;1.00
3794;DHT22;1912;51.358;12.282;2023-08-01T14:03:41;21.30;1.00
3794;DHT22;1912;51.358;12.282;2023-08-01T14:06:11;21.00;1.00
3794;DHT22;1912;51.358;12.282;2023-08-01T14:08:39;20.20;1.00
3794;DHT22;1912;51.358;12.282;2023-08-01T14:11:06;19.70;1.00
3794;DHT22;1912;51.358;12.282;2023-08-01T14:13:33;19.40;1.00
3794;DHT22;1912;51.358;12.282;2023-08-01T14:16:00;19.40;1.00
3794;DHT22;1912;51.358;12.282;2023-08-01T14:18:27;19.40;1.00
3794;DHT22;1912;51.358;12.282;2023-08-01T14:20:53;19.70;1.00
3794;DHT22;1912;51.358;12.282;2023-08-01T14:23:19;20.10;1.00
3794;DHT22;1912;51.358;12.282;2023-08-01T14:25:45;20.30;1.00
3794;DHT22;1912;51.358;12.282;2023-08-01T14:28:11;20.30;1.00
3794;DHT22;1912;51.358;12.282;2023-08-01T14:30:37;20.60;1.00
3794;DHT22;1912;51.358;12.282;2023-08-01T14:33:07;21.10;1.00
3794;DHT22;1912;51.358;12.282;2023-08-01T14:35:37;21.00;1.00
3794;DHT22;1912;51.358;12.282;2023-08-01T14:38:04;21.50;1.00
3794;DHT22;1912;51.358;12.282;2023-08-01T14:40:30;22.00;1.00
3794;DHT22;1912;51.358;12.282;2023-08-01T14:42:56;22.00;1.00
3794;DHT22;1912;51.358;12.282;2023-08-01T14:45:22;22.30;1.00
3794;DHT22;1912;51.358;12.282;2023-08-01T14:47:48;22.50;1.00
3794;DHT22;1912;51.358;12.282;2023-08-01T14:50:14;22.30;1.00
3794;DHT22;1912;51.358;12.282;2023-08-01T14:52:41;22.10;1.00
3794;DHT22;1912;51.358;12.282;2023-08-01T14:55:07;22.50;1.00
3794;DHT22;1912;51.358;12.282;2023-08-01T14:57:34;22.60;1.00
3794;DHT22;1912;51.358;12.282;2023-08-01T15:00:00;22.60;1.00
3794;DHT22;1912;51.358;12.282;2023-08-01T15:02:26;22.20;1.00
3794;DHT22;1912;51.358;12.282;2023-08-01T15:04:53;21.90;1.00
3794;DHT22;1912;51.358;12.282;2023-08-01T15:07:21;21.80;1.00
3794;DHT22;1912;51.358;12.282;2023-08-01T15:09:48;21.70;1.00
3794;DHT22;1912;51.358;12.282;2023-08-01T15:12:15;21.50;1.00
3794;DHT22;1912;51.358;12.282;2023-08-01T15:14:41;21.50;1.00
3794;DHT22;1912;51.358;12.282;2023-08-01T15:17:07;21.50;1.00
3794;DHT22;1912;51.358;12.282;2023-08-01T15:19:36;21.50;1.00
3794;DHT22;1912;51.358;12.282;2023-08-01T15:22:02;21.50;1.00
3794;DHT22;1912;51.358;12.282;2023-08-01T15:24:30;21.60;1.00
3794;DHT22;1912;51.358;12.282;2023-08-01T15:26:55;21.90;1.00
3794;DHT22;1912;51.358;12.282;2023-08-01T15:29:21;22.00;1.00
3794;DHT22;1912;51.358;12.282;2023-08-01T15:31:47;22.40;1.00
3794;DHT22;1912;51.358;12.282;2023-08-01T15:34:13;22.30;1.00
3794;DHT22;1912;51.358;12.282;2023-08-01T15:36:38;22.10;1.00
3794;DHT22;1912;51.358;12.282;2023-08-01T15:39:04;21.90;1.00
3794;DHT22;1912;51.358;12.282;2023-08-01T15:41:30;21.90;1.00
3794;DHT22;1912;51.358;12.282;2023-08-01T15:43:56;21.90;1.00
3794;DHT22;1912;51.358;12.282;2023-08-01T15:46:21;21.90;1.00
3794;DHT22;1912;51.358;12.282;2023-08-01T15:48:47;22.00;1.00
3794;DHT22;1912;51.358;12.282;2023-08-01T15:51:13;21.80;1.00
3794;DHT22;1912;51.358;12.282;2023-08-01T15:53:38;21.70;1.00
3794;DHT22;1912;51.358;12.282;2023-08-01T15:56:06;21.60;1.00
3794;DHT22;1912;51.358;12.282;2023-08-01T15:58:33;21.40;1.00
3794;DHT22;1912;51.358;12.282;2023-08-01T16:00:59;21.20;1.00
3794;DHT22;1912;51.358;12.282;2023-08-01T16:03:26;21.20;1.00
3794;DHT22;1912;51.358;12.282;2023-08-01T16:05:53;21.10;1.00
3794;DHT22;1912;51.358;12.282;2023-08-01T16:08:20;21.00;1.00
3794;DHT22;1912;51.358;12.282;2023-08-01T16:10:46;20.90;1.00
3794;DHT22;1912;51.358;12.282;2023-08-01T16:13:12;20.90;1.00
3794;DHT22;1912;51.358;12.282;2023-08-01T16:15:39;21.20;1.00
3794;DHT22;1912;51.358;12.282;2023-08-01T16:18:06;21.50;1.00
3794;DHT22;1912;51.358;12.282;2023-08-01T16:20:33;21.80;1.00
3794;DHT22;1912;51.358;12.282;2023-08-01T16:22:59;21.90;1.00
3794;DHT22;1912;51.358;12.282;2023-08-01T16:25:25;22.10;1.00
3794;DHT22;1912;51.358;12.282;2023-08-01T16:27:51;21.90;1.00
3794;DHT22;1912;51.358;12.282;2023-08-01T16:30:17;21.80;1.00
3794;DHT22;1912;51.358;12.282;2023-08-01T16:32:44;21.60;1.00
3794;DHT22;1912;51.358;12.282;2023-08-01T16:35:12;21.50;1.00
3794;DHT22;1912;51.358;12.282;2023-08-01T16:37:39;21.50;1.00
3794;DHT22;1912;51.358;12.282;2023-08-01T16:40:06;21.30;1.00
3794;DHT22;1912;51.358;12.282;2023-08-01T16:42:32;21.10;1.00
3794;DHT22;1912;51.358;12.282;2023-08-01T16:44:58;21.10;1.00
3794;DHT22;1912;51.358;12.282;2023-08-01T16:47:24;21.40;1.00
3794;DHT22;1912;51.358;12.282;2023-08-01T16:49:54;21.70;1.00
3794;DHT22;1912;51.358;12.282;2023-08-01T16:52:20;21.70;1.00
3794;DHT22;1912;51.358;12.282;2023-08-01T16:54:46;21.60;1.00
3794;DHT22;1912;51.358;12.282;2023-08-01T16:57:12;21.70;1.00
3794;DHT22;1912;51.358;12.282;2023-08-01T16:59:38;21.80;1.00
3794;DHT22;1912;51.358;12.282;2023-08-01T17:02:06;22.40;1.00
3794;DHT22;1912;51.358;12.282;2023-08-01T17:04:32;22.50;1.00
3794;DHT22;1912;51.358;12.282;2023-08-01T17:06:58;22.50;1.00
3794;DHT22;1912;51.358;12.282;2023-08-01T17:09:27;21.80;1.00
3794;DHT22;1912;51.358;12.282;2023-08-01T17:11:53;21.40;1.00
3794;DHT22;1912;51.358;12.282;2023-08-01T17:14:19;21.20;1.00
3794;DHT22;1912;51.358;12.282;2023-08-01T17:16:45;21.30;1.00
3794;DHT22;1912;51.358;12.282;2023-08-01T17:19:13;21.20;1.00
3794;DHT22;1912;51.358;12.282;2023-08-01T17:21:39;21.20;1.00
3794;DHT22;1912;51.358;12.282;2023-08-01T17:24:07;21.20;1.00
3794;DHT22;1912;51.358;12.282;2023-08-01T17:26:33;21.10;1.00
3794;DHT22;1912;51.358;12.282;2023-08-01T17:28:59;21.00;1.00
3794;DHT22;1912;51.358;12.282;2023-08-01T17:31:24;20.90;1.00
3794;DHT22;1912;51.358;12.282;2023-08-01T17:33:51;20.80;1.00
3794;DHT22;1912;51.358;12.282;2023-08-01T17:36:17;20.70;1.00
3794;DHT22;1912;51.358;12.282;2023-08-01T17:38:43;20.60;1.00
3794;DHT22;1912;51.358;12.282;2023-08-01T17:41:19;20.60;1.00
3794;DHT22;1912;51.358;12.282;2023-08-01T17:43:45;20.50;1.00
3794;DHT22;1912;51.358;12.282;2023-08-01T17:46:12;20.40;1.00
3794;DHT22;1912;51.358;12.282;2023-08-01T17:48:38;20.30;1.00
3794;DHT22;1912;51.358;12.282;2023-08-01T17:51:08;20.30;1.00
3794;DHT22;1912;51.358;12.282;2023-08-01T17:53:35;20.20;1.00
3794;DHT22;1912;51.358;12.282;2023-08-01T17:56:03;20.10;1.00
3794;DHT22;1912;51.358;12.282;2023-08-01T17:58:29;20.00;1.00
3794;DHT22;1912;51.358;12.282;2023-08-01T18:00:55;19.90;1.00
3794;DHT22;1912;51.358;12.282;2023-08-01T18:03:21;19.90;1.00
3794;DHT22;1912;51.358;12.282;2023-08-01T18:05:47;19.80;1.00
3794;DHT22;1912;51.358;12.282;2023-08-01T18:08:12;19.80;1.00
3794;DHT22;1912;51.358;12.282;2023-08-01T18:10:40;19.70;1.00
3794;DHT22;1912;51.358;12.282;2023-08-01T18:13:06;19.60;1.00
3794;DHT22;1912;51.358;12.282;2023-08-01T18:15:37;19.60;1.00
3794;DHT22;1912;51.358;12.282;2023-08-01T18:18:03;19.60;1.00
3794;DHT22;1912;51.358;12.282;2023-08-01T18:20:31;19.50;1.00
3794;DHT22;1912;51.358;12.282;2023-08-01T18:22:56;19.40;1.00
3794;DHT22;1912;51.358;12.282;2023-08-01T18:25:22;19.40;1.00
3794;DHT22;1912;51.358;12.282;2023-08-01T18:27:48;19.30;1.00
3794;DHT22;1912;51.358;12.282;2023-08-01T18:30:13;19.20;1.00
3794;DHT22;1912;51.358;12.282;2023-08-01T18:32:39;19.20;1.00
3794;DHT22;1912;51.358;12.282;2023-08-01T18:35:05;19.10;1.00
3794;DHT22;1912;51.358;12.282;2023-08-01T18:37:31;19.10;1.00
3794;DHT22;1912;51.358;12.282;2023-08-01T18:39:57;19.00;1.00
3794;DHT22;1912;51.358;12.282;2023-08-01T18:42:23;18.90;1.00
3794;DHT22;1912;51.358;12.282;2023-08-01T18:44:50;18.90;1.00
3794;DHT22;1912;51.358;12.282;2023-08-01T18:47:16;18.80;1.00
3794;DHT22;1912;51.358;12.282;2023-08-01T18:49:42;18.70;1.00
3794;DHT22;1912;51.358;12.282;2023-08-01T18:52:08;18.60;1.00
3794;DHT22;1912;51.358;12.282;2023-08-01T18:54:34;18.60;1.00
3794;DHT22;1912;51.358;12.282;2023-08-01T18:57:01;18.60;1.00
3794;DHT22;1912;51.358;12.282;2023-08-01T18:59:26;18.50;1.00
3794;DHT22;1912;51.358;12.282;2023-08-01T19:01:52;18.40;1.00
3794;DHT22;1912;51.358;12.282;2023-08-01T19:04:18;18.40;1.00
3794;DHT22;1912;51.358;12.282;2023-08-01T19:06:44;18.40;1.00
3794;DHT22;1912;51.358;12.282;2023-08-01T19:09:10;18.30;1.00
3794;DHT22;1912;51.358;12.282;2023-08-01T19:11:36;18.20;1.00
3794;DHT22;1912;51.358;12.282;2023-08-01T19:14:03;18.20;1.00
3794;DHT22;1912;51.358;12.282;2023-08-01T19:16:30;18.10;1.00
3794;DHT22;1912;51.358;12.282;2023-08-01T19:18:56;18.10;1.00
3794;DHT22;1912;51.358;12.282;2023-08-01T19:21:22;18.00;1.00
3794;DHT22;1912;51.358;12.282;2023-08-01T19:23:47;18.00;1.00
3794;DHT22;1912;51.358;12.282;2023-08-01T19:26:13;17.90;1.00
3794;DHT22;1912;51.358;12.282;2023-08-01T19:28:39;17.90;1.00
3794;DHT22;1912;51.358;12.282;2023-08-01T19:31:05;17.90;1.00
3794;DHT22;1912;51.358;12.282;2023-08-01T19:33:31;17.80;1.00
3794;DHT22;1912;51.358;12.282;2023-08-01T19:35:57;17.70;1.00
3794;DHT22;1912;51.358;12.282;2023-08-01T19:38:22;17.70;1.00
3794;DHT22;1912;51.358;12.282;2023-08-01T19:40:48;17.70;1.00
3794;DHT22;1912;51.358;12.282;2023-08-01T19:43:14;17.70;1.00
3794;DHT22;1912;51.358;12.282;2023-08-01T19:45:42;17.60;1.00
3794;DHT22;1912;51.358;12.282;2023-08-01T19:48:09;17.50;1.00
3794;DHT22;1912;51.358;12.282;2023-08-01T19:50:39;17.50;1.00
3794;DHT22;1912;51.358;12.282;2023-08-01T19:53:08;17.40;1.00
3794;DHT22;1912;51.358;12.282;2023-08-01T19:55:34;17.30;1.00